createdAt,value
2022-09-05T00:00:19.688Z,22.39
2022-09-05T00:03:07.470Z,22.30
2022-09-05T00:06:02.251Z,22.36
2022-09-05T00:08:32.936Z,22.30
2022-09-05T00:11:40.757Z,22.33
2022-09-05T00:14:34.458Z,22.20
2022-09-05T00:18:41.118Z,22.20
2022-09-05T00:24:25.765Z,22.18
2022-09-05T00:24:32.402Z,22.16
2022-09-05T00:26:51.460Z,22.19
2022-09-05T00:29:33.188Z,22.14
2022-09-05T00:32:40.952Z,22.16
2022-09-05T00:35:19.029Z,22.15
2022-09-05T00:37:49.025Z,22.11
2022-09-05T00:40:40.196Z,22.03
2022-09-05T00:43:36.806Z,21.83
2022-09-05T00:46:10.474Z,21.75
2022-09-05T00:49:12.319Z,21.82
2022-09-05T00:51:48.895Z,21.87
2022-09-05T00:54:41.650Z,21.83
2022-09-05T00:57:30.401Z,21.74
2022-09-05T01:00:18.974Z,21.77
2022-09-05T01:02:52.028Z,21.83
2022-09-05T01:05:51.746Z,21.88
2022-09-05T01:08:41.076Z,21.79
2022-09-05T01:11:19.752Z,21.83
2022-09-05T01:13:59.848Z,21.85
2022-09-05T01:16:36.827Z,21.80
2022-09-05T01:19:15.803Z,21.80
2022-09-05T01:22:04.951Z,21.76
2022-09-05T01:25:02.339Z,21.68
2022-09-05T01:28:08.392Z,21.70
2022-09-05T01:30:42.725Z,21.59
2022-09-05T01:33:35.056Z,21.54
2022-09-05T01:36:24.971Z,21.51
2022-09-05T01:39:53.598Z,21.53
2022-09-05T01:42:20.049Z,21.51
2022-09-05T01:45:04.407Z,21.56
2022-09-05T01:47:49.796Z,21.64
2022-09-05T01:50:40.123Z,21.53
2022-09-05T01:53:27.956Z,21.45
2022-09-05T01:56:27.037Z,21.23
2022-09-05T01:59:13.265Z,21.18
2022-09-05T02:02:16.917Z,21.29
2022-09-05T02:05:08.795Z,21.41
2022-09-05T02:08:32.589Z,21.39
2022-09-05T02:11:11.121Z,21.36
2022-09-05T02:13:37.961Z,21.30
2022-09-05T02:16:43.140Z,21.33
2022-09-05T02:19:09.721Z,21.37
2022-09-05T02:21:56.129Z,21.25
2022-09-05T02:24:36.077Z,21.18
2022-09-05T02:27:43.639Z,21.24
2022-09-05T02:30:08.624Z,21.05
2022-09-05T02:32:47.296Z,20.96
2022-09-05T02:35:27.716Z,20.94
2022-09-05T02:38:51.048Z,21.01
2022-09-05T02:45:07.675Z,21.00
2022-09-05T02:45:07.891Z,21.07
2022-09-05T02:46:59.008Z,21.05
2022-09-05T02:54:15.786Z,21.01
2022-09-05T02:57:33.266Z,21.01
2022-09-05T02:57:38.336Z,20.99
2022-09-05T02:58:59.278Z,20.98
2022-09-05T03:01:35.547Z,21.03
2022-09-05T03:04:31.025Z,21.04
2022-09-05T03:07:11.732Z,21.00
2022-09-05T03:10:19.985Z,20.86
2022-09-05T03:13:29.243Z,20.88
2022-09-05T03:16:10.750Z,20.79
2022-09-05T03:18:55.488Z,20.71
2022-09-05T03:21:42.440Z,20.72
2022-09-05T03:24:20.730Z,20.66
2022-09-05T03:27:09.357Z,20.63
2022-09-05T03:29:58.877Z,20.60
2022-09-05T03:32:51.149Z,20.58
2022-09-05T03:35:48.805Z,20.63
2022-09-05T03:39:05.332Z,20.59
2022-09-05T03:42:14.793Z,20.72
2022-09-05T03:44:49.312Z,20.73
2022-09-05T03:47:48.830Z,20.82
2022-09-05T03:55:51.456Z,20.87
2022-09-05T03:57:17.189Z,20.88
2022-09-05T03:57:33.680Z,20.89
2022-09-05T04:00:08.295Z,20.85
2022-09-05T04:07:06.305Z,20.83
2022-09-05T04:08:14.990Z,20.81
2022-09-05T04:08:57.025Z,20.86
2022-09-05T04:11:37.638Z,20.64
2022-09-05T04:14:13.778Z,20.63
2022-09-05T04:16:53.351Z,20.64
2022-09-05T04:19:49.020Z,20.64
2022-09-05T04:22:40.881Z,20.55
2022-09-05T04:25:16.468Z,20.61
2022-09-05T04:27:51.052Z,20.66
2022-09-05T04:30:55.199Z,20.59
2022-09-05T04:33:36.984Z,20.57
2022-09-05T04:36:18.193Z,20.59
2022-09-05T04:38:45.929Z,20.53
2022-09-05T04:41:18.158Z,20.51
2022-09-05T04:44:08.637Z,20.52
2022-09-05T04:46:48.457Z,20.48
2022-09-05T04:49:24.362Z,20.41
2022-09-05T04:52:32.633Z,20.43
2022-09-05T04:55:05.188Z,20.50
2022-09-05T04:57:42.187Z,20.52
2022-09-05T05:06:17.936Z,20.57
2022-09-05T05:07:20.121Z,20.45
2022-09-05T05:12:11.829Z,20.39
2022-09-05T05:17:54.056Z,20.49
2022-09-05T05:18:07.469Z,20.38
2022-09-05T05:18:53.316Z,20.24
2022-09-05T05:21:29.776Z,20.24
2022-09-05T05:24:06.757Z,20.35
2022-09-05T05:26:48.588Z,20.38
2022-09-05T05:29:38.404Z,20.23
2022-09-05T05:32:07.302Z,20.19
2022-09-05T05:34:49.857Z,20.15
2022-09-05T05:37:22.768Z,20.19
2022-09-05T05:40:08.553Z,20.24
2022-09-05T05:42:39.616Z,20.39
2022-09-05T05:45:20.685Z,20.38
2022-09-05T05:47:57.788Z,20.43
2022-09-05T05:50:33.543Z,20.38
2022-09-05T05:53:33.629Z,20.29
2022-09-05T05:56:32.797Z,20.25
2022-09-05T05:59:02.148Z,20.17
2022-09-05T06:02:13.133Z,20.15
2022-09-05T06:05:01.911Z,20.22
2022-09-05T06:10:02.418Z,20.27
2022-09-05T06:14:48.918Z,20.37
2022-09-05T06:15:00.910Z,20.39
2022-09-05T06:17:37.371Z,20.39
2022-09-05T06:21:52.487Z,20.57
2022-09-05T06:23:36.787Z,20.46
2022-09-05T06:26:31.202Z,20.48
2022-09-05T06:29:19.429Z,20.68
2022-09-05T06:31:55.174Z,20.73
2022-09-05T06:34:43.828Z,20.88
2022-09-05T06:37:31.267Z,20.88
2022-09-05T06:40:28.090Z,21.12
2022-09-05T06:43:03.693Z,21.26
2022-09-05T06:45:59.035Z,21.16
2022-09-05T06:48:44.593Z,20.92
2022-09-05T06:51:44.099Z,21.10
2022-09-05T06:54:47.325Z,21.18
2022-09-05T06:57:54.113Z,21.31
2022-09-05T07:00:24.653Z,21.40
2022-09-05T07:03:13.999Z,21.51
2022-09-05T07:06:21.277Z,21.62
2022-09-05T07:09:28.740Z,21.69
2022-09-05T07:12:18.991Z,21.90
2022-09-05T07:15:31.994Z,22.00
2022-09-05T07:18:17.869Z,22.10
2022-09-05T07:21:17.968Z,22.28
2022-09-05T07:24:06.752Z,22.27
2022-09-05T07:26:54.097Z,22.32
2022-09-05T07:29:31.117Z,22.46
2022-09-05T07:31:59.803Z,22.40
2022-09-05T07:34:31.729Z,22.59
2022-09-05T07:37:15.493Z,22.74
2022-09-05T07:39:58.428Z,22.67
2022-09-05T07:42:48.519Z,22.90
2022-09-05T07:45:26.944Z,22.95
2022-09-05T07:48:05.261Z,23.06
2022-09-05T07:55:07.986Z,23.19
2022-09-05T07:56:49.252Z,23.20
2022-09-05T07:57:20.827Z,23.24
2022-09-05T07:59:40.473Z,23.30
2022-09-05T08:02:10.402Z,23.28
2022-09-05T08:04:40.725Z,23.38
2022-09-05T08:07:49.987Z,23.48
2022-09-05T08:10:18.271Z,23.57
2022-09-05T08:13:23.910Z,23.58
2022-09-05T08:16:11.032Z,23.63
2022-09-05T08:18:51.601Z,23.90
2022-09-05T08:21:44.246Z,23.71
2022-09-05T08:24:25.067Z,23.92
2022-09-05T08:27:03.522Z,23.97
2022-09-05T08:29:35.464Z,24.10
2022-09-05T08:32:02.467Z,24.49
2022-09-05T08:34:48.317Z,24.52
2022-09-05T08:37:21.949Z,24.50
2022-09-05T08:40:10.018Z,24.37
2022-09-05T08:43:36.615Z,24.44
2022-09-05T08:46:47.206Z,24.49
2022-09-05T08:49:32.696Z,24.11
2022-09-05T08:52:15.619Z,24.28
2022-09-05T08:55:10.144Z,24.19
2022-09-05T08:57:46.413Z,24.26
2022-09-05T09:00:24.373Z,24.43
2022-09-05T09:03:03.967Z,24.67
2022-09-05T09:06:12.420Z,24.58
2022-09-05T09:08:45.554Z,24.48
2022-09-05T09:11:27.559Z,24.24
2022-09-05T09:14:29.464Z,24.52
2022-09-05T09:17:02.033Z,24.67
2022-09-05T09:19:44.016Z,24.47
2022-09-05T09:22:13.328Z,24.59
2022-09-05T09:25:14.180Z,24.38
2022-09-05T09:28:46.548Z,24.69
2022-09-05T09:30:32.129Z,24.52
2022-09-05T09:33:04.420Z,24.70
2022-09-05T09:35:52.818Z,24.47
2022-09-05T09:38:27.269Z,24.35
2022-09-05T09:41:15.618Z,24.54
2022-09-05T09:44:06.997Z,24.61
2022-09-05T09:46:43.509Z,24.88
2022-09-05T09:49:23.190Z,24.76
2022-09-05T09:52:03.267Z,24.90
2022-09-05T09:54:52.085Z,25.01
2022-09-05T09:57:28.344Z,25.09
2022-09-05T09:59:57.636Z,25.12
2022-09-05T10:05:42.825Z,25.17
2022-09-05T10:10:43.805Z,25.19
2022-09-05T10:10:48.844Z,25.34
2022-09-05T10:12:01.047Z,25.44
2022-09-05T10:14:56.551Z,25.35
2022-09-05T10:17:47.486Z,25.42
2022-09-05T10:20:38.069Z,25.58
2022-09-05T10:23:33.330Z,25.46
2022-09-05T10:26:22.013Z,25.46
2022-09-05T10:29:26.730Z,25.66
2022-09-05T10:34:43.753Z,25.64
2022-09-05T10:35:23.130Z,25.82
2022-09-05T10:37:46.138Z,25.69
2022-09-05T10:40:17.161Z,25.55
2022-09-05T10:43:00.916Z,25.71
2022-09-05T10:45:49.380Z,25.75
2022-09-05T10:48:26.760Z,25.59
2022-09-05T10:51:27.243Z,25.73
2022-09-05T10:54:26.047Z,25.67
2022-09-05T10:57:24.351Z,25.51
2022-09-05T11:02:21.648Z,25.65
2022-09-05T11:02:57.892Z,25.50
2022-09-05T11:05:38.046Z,25.62
2022-09-05T11:08:16.357Z,25.61
2022-09-05T11:11:00.331Z,25.85
2022-09-05T11:13:56.354Z,25.87
2022-09-05T11:16:30.574Z,25.96
2022-09-05T11:19:05.890Z,26.18
2022-09-05T11:22:19.932Z,25.92
2022-09-05T11:24:55.462Z,25.95
2022-09-05T11:27:27.748Z,26.15
2022-09-05T11:29:57.963Z,26.28
2022-09-05T11:35:49.997Z,26.05
2022-09-05T11:39:45.691Z,25.88
2022-09-05T11:40:08.820Z,26.10
2022-09-05T11:42:07.243Z,26.39
2022-09-05T11:44:48.873Z,26.17
2022-09-05T11:47:49.769Z,26.36
2022-09-05T11:50:40.925Z,26.14
2022-09-05T11:53:41.589Z,26.24
2022-09-05T11:56:28.998Z,26.36
2022-09-05T11:59:32.943Z,26.33
2022-09-05T12:02:32.594Z,26.17
2022-09-05T12:05:49.648Z,26.07
2022-09-05T12:08:36.484Z,26.02
2022-09-05T12:11:08.942Z,26.20
2022-09-05T12:13:48.762Z,26.21
2022-09-05T12:16:27.241Z,26.19
2022-09-05T12:19:19.696Z,26.54
2022-09-05T12:22:09.075Z,26.51
2022-09-05T12:25:25.312Z,26.53
2022-09-05T12:29:26.428Z,26.23
2022-09-05T12:32:34.516Z,26.45
2022-09-05T12:36:12.956Z,26.55
2022-09-05T12:40:55.127Z,26.43
2022-09-05T12:40:59.286Z,26.46
2022-09-05T12:43:39.706Z,26.48
2022-09-05T12:45:47.509Z,26.63
2022-09-05T12:48:43.245Z,26.27
2022-09-05T12:51:45.447Z,26.62
2022-09-05T12:54:09.462Z,26.71
2022-09-05T13:02:05.250Z,26.40
2022-09-05T13:03:04.849Z,26.63
2022-09-05T13:03:05.044Z,26.87
2022-09-05T13:05:57.475Z,26.91
2022-09-05T13:08:31.291Z,26.37
2022-09-05T13:14:46.681Z,26.53
2022-09-05T13:14:57.343Z,26.69
2022-09-05T13:16:46.990Z,26.65
2022-09-05T13:19:39.650Z,26.79
2022-09-05T13:22:10.094Z,26.95
2022-09-05T13:24:41.379Z,27.07
2022-09-05T13:27:21.812Z,26.79
2022-09-05T13:34:23.303Z,26.93
2022-09-05T13:38:02.789Z,26.93
2022-09-05T13:38:20.328Z,27.30
2022-09-05T13:39:00.711Z,27.15
2022-09-05T13:41:35.431Z,27.36
2022-09-05T13:44:29.999Z,27.69
2022-09-05T13:47:29.135Z,27.55
2022-09-05T13:49:55.593Z,27.52
2022-09-05T13:52:41.550Z,27.88
2022-09-05T13:55:11.996Z,27.99
2022-09-05T13:57:49.821Z,28.23
2022-09-05T14:00:27.636Z,28.28
2022-09-05T14:03:30.575Z,28.33
2022-09-05T14:06:45.672Z,28.26
2022-09-05T14:09:40.101Z,28.67
2022-09-05T14:12:37.184Z,28.55
2022-09-05T14:15:16.675Z,28.52
2022-09-05T14:17:58.748Z,29.14
2022-09-05T14:20:49.835Z,29.29
2022-09-05T14:23:20.646Z,29.06
2022-09-05T14:25:55.608Z,29.43
2022-09-05T14:28:39.083Z,29.48
2022-09-05T14:37:34.684Z,29.80
2022-09-05T14:37:52.210Z,30.23
2022-09-05T14:38:00.946Z,30.23
2022-09-05T14:41:15.041Z,30.63
2022-09-05T14:44:10.311Z,30.68
2022-09-05T14:46:52.450Z,30.53
2022-09-05T14:49:54.043Z,30.59
2022-09-05T14:52:26.691Z,31.42
2022-09-05T15:02:50.348Z,32.26
2022-09-05T15:02:53.271Z,32.16
2022-09-05T15:06:33.266Z,32.72
2022-09-05T15:11:24.331Z,33.47
2022-09-05T15:12:28.001Z,33.48
2022-09-05T15:14:37.360Z,32.45
2022-09-05T15:17:05.820Z,31.84
2022-09-05T15:20:07.861Z,31.10
2022-09-05T15:22:41.892Z,30.02
2022-09-05T15:25:18.316Z,29.53
2022-09-05T15:27:46.709Z,28.80
2022-09-05T15:30:35.935Z,28.51
2022-09-05T15:33:25.176Z,28.84
2022-09-05T15:35:53.089Z,28.78
2022-09-05T15:38:22.613Z,28.54
2022-09-05T15:41:12.133Z,28.53
2022-09-05T15:43:52.849Z,28.32
2022-09-05T15:46:29.590Z,28.38
2022-09-05T15:49:04.049Z,28.16
2022-09-05T15:51:48.672Z,27.84
2022-09-05T15:54:38.123Z,27.69
2022-09-05T15:57:08.942Z,27.77
2022-09-05T15:59:48.878Z,27.89
2022-09-05T16:02:25.725Z,27.99
2022-09-05T16:10:31.287Z,28.01
2022-09-05T16:10:38.654Z,28.08
2022-09-05T16:11:05.386Z,28.01
2022-09-05T16:13:36.747Z,27.62
2022-09-05T16:23:16.570Z,27.64
2022-09-05T16:23:24.106Z,27.45
2022-09-05T16:23:27.782Z,27.86
2022-09-05T16:24:58.945Z,27.50
2022-09-05T16:27:48.510Z,27.52
2022-09-05T16:30:34.258Z,27.48
2022-09-05T16:33:22.622Z,27.57
2022-09-05T16:36:01.574Z,27.64
2022-09-05T16:38:50.030Z,27.85
2022-09-05T16:41:51.954Z,28.19
2022-09-05T16:44:47.136Z,27.82
2022-09-05T16:47:59.437Z,27.60
2022-09-05T16:50:47.910Z,27.56
2022-09-05T16:53:30.896Z,27.57
2022-09-05T16:56:23.549Z,27.61
2022-09-05T16:58:56.296Z,27.47
2022-09-05T17:01:54.697Z,27.37
2022-09-05T17:05:03.181Z,27.49
2022-09-05T17:07:55.115Z,27.44
2022-09-05T17:10:33.530Z,27.47
2022-09-05T17:13:01.779Z,27.48
2022-09-05T17:15:36.195Z,27.60
2022-09-05T17:18:19.822Z,27.56
2022-09-05T17:20:54.259Z,27.50
2022-09-05T17:29:17.195Z,27.42
2022-09-05T17:29:35.091Z,27.36
2022-09-05T17:32:40.391Z,27.23
2022-09-05T17:35:17.284Z,27.20
2022-09-05T17:37:54.763Z,27.22
2022-09-05T17:40:59.199Z,27.20
2022-09-05T17:43:30.021Z,27.19
2022-09-05T17:46:24.171Z,27.26
2022-09-05T17:49:08.651Z,27.25
2022-09-05T17:51:42.003Z,26.99
2022-09-05T17:54:21.210Z,26.88
2022-09-05T17:56:48.539Z,26.71
2022-09-05T17:59:21.260Z,26.67
2022-09-05T18:02:03.530Z,26.68
2022-09-05T18:04:51.075Z,26.55
2022-09-05T18:07:26.627Z,26.48
2022-09-05T18:10:12.924Z,26.46
2022-09-05T18:15:33.757Z,26.72
2022-09-05T18:18:05.302Z,26.77
2022-09-05T18:21:12.509Z,26.74
2022-09-05T18:26:42.885Z,26.58
2022-09-05T18:29:28.693Z,26.53
2022-09-05T18:32:40.983Z,26.56
2022-09-05T18:35:26.325Z,26.67
2022-09-05T18:38:04.048Z,26.62
2022-09-05T18:40:47.444Z,26.52
2022-09-05T18:43:30.870Z,26.43
2022-09-05T18:46:06.751Z,26.39
2022-09-05T18:48:44.042Z,26.36
2022-09-05T18:51:35.246Z,26.33
2022-09-05T18:54:08.428Z,26.47
2022-09-05T18:57:26.832Z,26.44
2022-09-05T18:59:51.441Z,26.26
2022-09-05T19:02:51.502Z,26.14
2022-09-05T19:05:32.488Z,26.14
2022-09-05T19:08:03.763Z,26.14
2022-09-05T19:10:35.498Z,26.13
2022-09-05T19:13:16.143Z,26.08
2022-09-05T19:15:52.900Z,26.02
2022-09-05T19:19:06.225Z,25.95
2022-09-05T19:21:33.811Z,25.88
2022-09-05T19:24:06.712Z,25.81
2022-09-05T19:26:34.217Z,25.86
2022-09-05T19:36:46.203Z,25.87
2022-09-05T19:36:54.505Z,25.80
2022-09-05T19:36:55.466Z,25.85
2022-09-05T19:37:44.625Z,25.99
2022-09-05T19:47:10.965Z,25.86
2022-09-05T19:47:36.962Z,26.05
2022-09-05T19:47:47.382Z,26.12
2022-09-05T19:49:18.433Z,25.89
2022-09-05T19:51:46.677Z,25.79
2022-09-05T19:54:28.129Z,25.65
2022-09-05T19:57:01.468Z,25.53
2022-09-05T19:59:40.399Z,25.55
2022-09-05T20:02:25.582Z,25.52
2022-09-05T20:04:54.696Z,25.47
2022-09-05T20:07:26.644Z,25.47
2022-09-05T20:09:55.590Z,25.56
2022-09-05T20:12:29.133Z,25.56
2022-09-05T20:14:56.121Z,25.41
2022-09-05T20:17:28.751Z,25.41
2022-09-05T20:20:07.303Z,25.38
2022-09-05T20:22:47.947Z,25.36
2022-09-05T20:25:35.577Z,25.29
2022-09-05T20:28:30.768Z,25.35
2022-09-05T20:31:08.510Z,25.27
2022-09-05T20:33:58.022Z,25.21
2022-09-05T20:43:10.556Z,25.22
2022-09-05T20:43:20.295Z,25.16
2022-09-05T20:43:31.792Z,25.19
2022-09-05T20:46:17.515Z,25.20
2022-09-05T20:54:12.528Z,25.18
2022-09-05T20:54:13.195Z,25.07
2022-09-05T20:54:39.602Z,25.05
2022-09-05T20:57:22.859Z,25.00
2022-09-05T20:59:49.653Z,25.01
2022-09-05T21:02:24.228Z,25.04
2022-09-05T21:05:19.784Z,25.38
2022-09-05T21:07:51.232Z,25.30
2022-09-05T21:10:52.416Z,25.04
2022-09-05T21:13:35.492Z,24.87
2022-09-05T21:16:04.329Z,25.09
2022-09-05T21:18:34.008Z,25.10
2022-09-05T21:21:27.838Z,24.87
2022-09-05T21:24:16.727Z,24.78
2022-09-05T21:26:49.923Z,24.73
2022-09-05T21:29:32.356Z,24.72
2022-09-05T21:32:02.066Z,24.67
2022-09-05T21:34:33.456Z,24.70
2022-09-05T21:37:07.857Z,24.72
2022-09-05T21:39:38.200Z,24.67
2022-09-05T21:42:26.992Z,24.68
2022-09-05T21:47:38.332Z,24.69
2022-09-05T21:47:52.095Z,24.72
2022-09-05T21:50:31.180Z,24.61
2022-09-05T21:54:06.554Z,24.60
2022-09-05T21:59:27.970Z,24.56
2022-09-05T21:59:32.702Z,24.50
2022-09-05T22:01:48.897Z,24.64
2022-09-05T22:04:13.030Z,24.75
2022-09-05T22:06:39.704Z,24.68
2022-09-05T22:09:14.026Z,24.42
2022-09-05T22:11:41.201Z,24.45
2022-09-05T22:14:09.032Z,24.42
2022-09-05T22:16:44.786Z,24.38
2022-09-05T22:19:22.449Z,24.34
2022-09-05T22:21:53.570Z,24.34
2022-09-05T22:24:22.811Z,24.31
2022-09-05T22:27:11.221Z,24.32
2022-09-05T22:29:39.912Z,24.32
2022-09-05T22:32:07.195Z,24.23
2022-09-05T22:34:33.980Z,24.24
2022-09-05T22:37:00.703Z,24.24
2022-09-05T22:39:37.096Z,24.22
2022-09-05T22:42:10.015Z,24.25
2022-09-05T22:44:39.315Z,24.24
2022-09-05T22:47:08.936Z,24.22
2022-09-05T22:49:36.530Z,24.26
2022-09-05T22:52:05.673Z,24.15
2022-09-05T22:54:36.337Z,23.98
2022-09-05T22:57:04.265Z,23.86
2022-09-05T22:59:31.551Z,23.93
2022-09-05T23:01:58.544Z,24.04
2022-09-05T23:04:25.943Z,24.08
2022-09-05T23:06:52.753Z,24.06
2022-09-05T23:09:19.550Z,24.09
2022-09-05T23:11:46.457Z,24.08
2022-09-05T23:14:13.143Z,24.09
2022-09-05T23:16:39.798Z,24.09
2022-09-05T23:19:06.425Z,24.11
2022-09-05T23:21:33.937Z,24.04
2022-09-05T23:24:00.629Z,23.89
2022-09-05T23:26:27.505Z,23.75
2022-09-05T23:28:54.124Z,23.71
2022-09-05T23:31:20.847Z,23.82
2022-09-05T23:33:47.570Z,24.33
2022-09-05T23:36:14.710Z,24.12
2022-09-05T23:38:42.829Z,24.06
2022-09-05T23:41:13.914Z,24.12
2022-09-05T23:43:40.601Z,24.15
2022-09-05T23:46:07.998Z,23.94
2022-09-05T23:48:35.025Z,23.85
2022-09-05T23:51:07.178Z,23.98
2022-09-05T23:53:34.298Z,23.78
2022-09-05T23:56:02.134Z,23.86
2022-09-05T23:58:29.583Z,23.95
